createdAt,value
2022-08-07T00:00:25.920Z,3.70
2022-08-07T00:02:53.801Z,3.50
2022-08-07T00:05:23.589Z,3.47
2022-08-07T00:07:59.916Z,4.23
2022-08-07T00:10:30.649Z,4.30
2022-08-07T00:13:23.630Z,4.23
2022-08-07T00:15:52.234Z,3.53
2022-08-07T00:18:24.249Z,3.90
2022-08-07T00:21:01.626Z,4.07
2022-08-07T00:23:30.760Z,4.47
2022-08-07T00:26:06.939Z,4.73
2022-08-07T00:28:55.664Z,4.23
2022-08-07T00:31:37.372Z,4.63
2022-08-07T00:34:10.166Z,4.97
2022-08-07T00:36:42.950Z,4.87
2022-08-07T00:39:16.460Z,5.70
2022-08-07T00:42:01.476Z,4.70
2022-08-07T00:44:34.931Z,4.70
2022-08-07T00:47:16.126Z,5.50
2022-08-07T00:50:21.215Z,5.20
2022-08-07T00:52:47.701Z,4.97
2022-08-07T00:55:17.246Z,5.03
2022-08-07T00:57:55.644Z,4.87
2022-08-07T01:00:24.463Z,4.30
2022-08-07T01:02:52.471Z,5.20
2022-08-07T01:05:24.580Z,4.80
2022-08-07T01:07:51.642Z,4.50
2022-08-07T01:10:19.745Z,4.37
2022-08-07T01:12:53.723Z,4.10
2022-08-07T01:16:00.627Z,4.27
2022-08-07T01:18:17.559Z,4.10
2022-08-07T01:21:03.473Z,4.20
2022-08-07T01:23:46.838Z,4.63
2022-08-07T01:26:17.169Z,4.97
2022-08-07T01:28:50.407Z,5.10
2022-08-07T01:31:22.947Z,4.57
2022-08-07T01:33:56.068Z,5.13
2022-08-07T01:36:33.256Z,4.50
2022-08-07T01:39:01.675Z,4.53
2022-08-07T01:41:39.245Z,4.30
2022-08-07T01:44:21.768Z,4.90
2022-08-07T01:46:51.474Z,4.77
2022-08-07T01:49:18.423Z,4.47
2022-08-07T01:52:01.523Z,4.73
2022-08-07T01:54:36.970Z,5.27
2022-08-07T01:57:24.195Z,6.03
2022-08-07T02:00:01.082Z,6.13
2022-08-07T02:03:19.135Z,5.47
2022-08-07T02:05:48.106Z,6.47
2022-08-07T02:08:27.468Z,6.27
2022-08-07T02:10:59.760Z,5.77
2022-08-07T02:13:57.663Z,6.30
2022-08-07T02:16:28.640Z,5.93
2022-08-07T02:19:05.519Z,5.93
2022-08-07T02:21:55.479Z,5.57
2022-08-07T02:24:26.306Z,5.53
2022-08-07T02:27:02.422Z,5.40
2022-08-07T02:32:14.698Z,5.60
2022-08-07T02:34:48.946Z,5.60
2022-08-07T02:37:19.616Z,5.37
2022-08-07T02:40:02.008Z,5.93
2022-08-07T02:42:36.715Z,5.07
2022-08-07T02:45:13.561Z,4.50
2022-08-07T02:47:53.003Z,5.30
2022-08-07T02:50:21.028Z,6.40
2022-08-07T02:53:03.465Z,5.63
2022-08-07T02:56:02.540Z,5.23
2022-08-07T02:58:27.258Z,5.23
2022-08-07T03:00:57.647Z,6.20
2022-08-07T03:03:29.494Z,7.43
2022-08-07T03:06:16.589Z,8.23
2022-08-07T03:08:54.127Z,6.33
2022-08-07T03:11:25.240Z,6.30
2022-08-07T03:13:57.595Z,6.73
2022-08-07T03:16:30.475Z,6.20
2022-08-07T03:18:59.244Z,5.43
2022-08-07T03:21:27.914Z,5.37
2022-08-07T03:24:19.218Z,5.30
2022-08-07T03:26:57.952Z,5.10
2022-08-07T03:29:36.571Z,5.10
2022-08-07T03:32:07.154Z,4.80
2022-08-07T03:34:47.319Z,5.43
2022-08-07T03:37:32.810Z,4.77
2022-08-07T03:40:15.458Z,5.27
2022-08-07T03:42:43.722Z,4.53
2022-08-07T03:45:11.859Z,5.90
2022-08-07T03:47:47.842Z,4.90
2022-08-07T03:50:22.999Z,5.37
2022-08-07T03:52:53.222Z,5.80
2022-08-07T03:55:21.430Z,5.00
2022-08-07T03:58:35.449Z,5.13
2022-08-07T04:00:46.552Z,5.40
2022-08-07T04:03:22.394Z,5.70
2022-08-07T04:05:49.364Z,5.00
2022-08-07T04:08:18.460Z,5.60
2022-08-07T04:10:54.513Z,5.37
2022-08-07T04:14:33.330Z,5.40
2022-08-07T04:16:30.911Z,5.33
2022-08-07T04:19:01.520Z,5.43
2022-08-07T04:21:33.437Z,5.47
2022-08-07T04:24:07.602Z,5.67
2022-08-07T04:26:35.818Z,5.77
2022-08-07T04:29:03.923Z,5.63
2022-08-07T04:31:39.071Z,5.73
2022-08-07T04:34:27.620Z,6.07
2022-08-07T04:37:01.622Z,5.57
2022-08-07T04:39:35.909Z,5.97
2022-08-07T04:42:05.044Z,5.67
2022-08-07T04:44:35.859Z,6.00
2022-08-07T04:47:09.380Z,6.40
2022-08-07T04:49:42.143Z,4.67
2022-08-07T04:52:52.355Z,5.80
2022-08-07T04:58:12.436Z,5.50
2022-08-07T05:01:54.403Z,5.17
2022-08-07T05:04:26.825Z,6.40
2022-08-07T05:07:19.617Z,5.97
2022-08-07T05:10:02.822Z,6.20
2022-08-07T05:12:52.814Z,5.93
2022-08-07T05:15:35.422Z,5.73
2022-08-07T05:18:09.269Z,5.87
2022-08-07T05:20:44.190Z,5.50
2022-08-07T05:23:36.307Z,5.83
2022-08-07T05:26:13.348Z,6.13
2022-08-07T05:28:48.478Z,5.13
2022-08-07T05:31:20.605Z,5.60
2022-08-07T05:34:04.957Z,5.80
2022-08-07T05:36:42.830Z,5.53
2022-08-07T05:40:05.820Z,5.67
2022-08-07T05:42:02.710Z,6.03
2022-08-07T05:44:34.441Z,6.10
2022-08-07T05:47:17.983Z,5.60
2022-08-07T05:49:54.541Z,5.67
2022-08-07T05:52:30.054Z,5.37
2022-08-07T05:55:06.739Z,6.17
2022-08-07T05:57:42.396Z,5.90
2022-08-07T06:00:16.598Z,5.10
2022-08-07T06:02:48.297Z,5.57
2022-08-07T06:05:17.057Z,5.80
2022-08-07T06:08:14.975Z,5.77
2022-08-07T06:10:39.864Z,5.77
2022-08-07T06:13:13.377Z,5.93
2022-08-07T06:15:43.413Z,5.47
2022-08-07T06:18:13.775Z,5.50
2022-08-07T06:20:50.386Z,5.40
2022-08-07T06:24:36.975Z,5.00
2022-08-07T06:26:20.738Z,5.03
2022-08-07T06:28:57.214Z,5.13
2022-08-07T06:31:46.962Z,4.57
2022-08-07T06:34:12.982Z,4.80
2022-08-07T06:36:40.187Z,4.97
2022-08-07T06:40:17.237Z,5.03
2022-08-07T06:42:06.234Z,5.33
2022-08-07T06:44:36.907Z,4.30
2022-08-07T06:47:12.400Z,4.47
2022-08-07T06:49:50.922Z,5.37
2022-08-07T06:52:31.942Z,5.40
2022-08-07T06:55:32.878Z,4.70
2022-08-07T06:58:10.311Z,5.07
2022-08-07T07:00:42.492Z,4.67
2022-08-07T07:03:13.605Z,5.30
2022-08-07T07:06:02.706Z,4.87
2022-08-07T07:08:30.860Z,4.90
2022-08-07T07:11:00.937Z,4.03
2022-08-07T07:13:43.562Z,4.60
2022-08-07T07:16:30.420Z,4.93
2022-08-07T07:19:54.454Z,4.70
2022-08-07T07:22:04.774Z,4.93
2022-08-07T07:24:43.000Z,4.53
2022-08-07T07:27:17.181Z,5.20
2022-08-07T07:30:08.880Z,4.43
2022-08-07T07:32:40.632Z,4.80
2022-08-07T07:35:12.482Z,5.13
2022-08-07T07:37:49.683Z,5.00
2022-08-07T07:40:21.475Z,6.00
2022-08-07T07:42:55.761Z,5.73
2022-08-07T07:46:35.535Z,5.47
2022-08-07T07:48:34.878Z,4.90
2022-08-07T07:51:07.478Z,4.87
2022-08-07T07:53:51.790Z,5.43
2022-08-07T07:56:30.156Z,5.00
2022-08-07T07:59:01.662Z,4.90
2022-08-07T08:02:03.857Z,5.43
2022-08-07T08:04:25.426Z,4.97
2022-08-07T08:06:54.236Z,5.43
2022-08-07T08:09:29.254Z,4.50
2022-08-07T08:12:03.893Z,4.50
2022-08-07T08:14:36.506Z,4.83
2022-08-07T08:17:56.473Z,4.80
2022-08-07T08:20:18.198Z,4.90
2022-08-07T08:23:10.085Z,4.93
2022-08-07T08:25:58.752Z,4.47
2022-08-07T08:28:38.044Z,4.30
2022-08-07T08:31:08.271Z,4.47
2022-08-07T08:33:49.094Z,4.30
2022-08-07T08:36:25.754Z,4.30
2022-08-07T08:39:01.692Z,4.23
2022-08-07T08:41:58.825Z,4.13
2022-08-07T08:44:45.688Z,3.93
2022-08-07T08:47:34.398Z,4.17
2022-08-07T08:50:28.195Z,4.60
2022-08-07T08:53:09.746Z,3.93
2022-08-07T08:55:55.399Z,4.40
2022-08-07T08:58:41.821Z,4.27
2022-08-07T09:01:18.738Z,3.73
2022-08-07T09:03:55.490Z,4.10
2022-08-07T09:07:00.982Z,3.93
2022-08-07T09:09:56.792Z,4.57
2022-08-07T09:12:40.034Z,4.03
2022-08-07T09:16:23.467Z,4.00
2022-08-07T09:19:51.798Z,3.97
2022-08-07T09:24:27.275Z,4.20
2022-08-07T09:25:20.941Z,4.27
2022-08-07T09:28:03.838Z,4.30
2022-08-07T09:30:54.522Z,4.43
2022-08-07T09:33:56.528Z,3.77
2022-08-07T09:36:35.359Z,3.90
2022-08-07T09:39:55.249Z,4.37
2022-08-07T09:42:33.848Z,4.43
2022-08-07T09:47:24.395Z,3.90
2022-08-07T09:48:11.687Z,3.42
2022-08-07T09:52:10.134Z,3.92
2022-08-07T09:54:11.643Z,4.10
2022-08-07T09:57:07.330Z,3.90
2022-08-07T10:00:14.404Z,3.60
2022-08-07T10:02:56.735Z,3.90
2022-08-07T10:06:02.673Z,3.13
2022-08-07T10:08:44.200Z,3.63
2022-08-07T10:12:01.661Z,3.70
2022-08-07T10:14:31.121Z,3.88
2022-08-07T10:17:04.403Z,3.90
2022-08-07T10:20:02.584Z,3.58
2022-08-07T10:22:47.515Z,4.00
2022-08-07T10:25:43.663Z,3.58
2022-08-07T10:28:16.161Z,4.00
2022-08-07T10:31:01.738Z,3.95
2022-08-07T10:34:05.601Z,4.03
2022-08-07T10:37:12.580Z,3.47
2022-08-07T10:40:09.122Z,4.13
2022-08-07T10:42:54.671Z,4.00
2022-08-07T10:45:48.044Z,3.58
2022-08-07T10:48:24.562Z,3.70
2022-08-07T10:51:39.351Z,3.90
2022-08-07T10:54:18.542Z,3.57
2022-08-07T10:57:12.794Z,4.17
2022-08-07T10:59:52.204Z,4.20
2022-08-07T11:02:49.160Z,3.90
2022-08-07T11:05:51.026Z,4.47
2022-08-07T11:08:45.951Z,4.10
2022-08-07T11:11:25.720Z,4.30
2022-08-07T11:14:44.577Z,4.60
2022-08-07T11:17:07.398Z,4.40
2022-08-07T11:20:16.089Z,4.57
2022-08-07T11:23:12.981Z,4.27
2022-08-07T11:26:14.047Z,4.33
2022-08-07T11:29:41.085Z,4.63
2022-08-07T11:32:25.301Z,4.73
2022-08-07T11:34:57.391Z,4.20
2022-08-07T11:37:38.445Z,4.27
2022-08-07T11:40:40.895Z,3.92
2022-08-07T11:43:29.589Z,4.10
2022-08-07T11:46:36.898Z,3.90
2022-08-07T11:49:27.617Z,3.67
2022-08-07T11:52:42.035Z,4.05
2022-08-07T11:56:24.860Z,4.00
2022-08-07T11:58:35.792Z,4.22
2022-08-07T12:01:06.718Z,4.47
2022-08-07T12:03:58.521Z,4.00
2022-08-07T12:06:39.752Z,4.10
2022-08-07T12:09:50.451Z,4.00
2022-08-07T12:12:28.358Z,4.25
2022-08-07T12:15:46.592Z,3.83
2022-08-07T12:18:13.497Z,3.70
2022-08-07T12:21:02.080Z,3.97
2022-08-07T12:24:07.615Z,3.55
2022-08-07T12:26:46.813Z,3.80
2022-08-07T12:29:40.593Z,3.60
2022-08-07T12:32:18.382Z,3.83
2022-08-07T12:34:55.779Z,3.50
2022-08-07T12:37:28.289Z,3.85
2022-08-07T12:40:44.922Z,3.70
2022-08-07T12:43:09.450Z,3.22
2022-08-07T12:45:52.376Z,3.65
2022-08-07T12:48:52.540Z,3.67
2022-08-07T12:51:33.346Z,3.70
2022-08-07T12:54:38.014Z,3.08
2022-08-07T12:57:07.449Z,3.08
2022-08-07T12:59:54.366Z,3.05
2022-08-07T13:02:56.782Z,3.05
2022-08-07T13:06:03.023Z,3.50
2022-08-07T13:10:17.780Z,3.20
2022-08-07T13:12:23.662Z,3.13
2022-08-07T13:14:56.784Z,3.58
2022-08-07T13:17:40.731Z,3.53
2022-08-07T13:20:27.668Z,3.55
2022-08-07T13:24:02.080Z,3.45
2022-08-07T13:26:05.434Z,3.60
2022-08-07T13:28:58.225Z,3.67
2022-08-07T13:31:46.000Z,3.38
2022-08-07T13:34:33.811Z,3.20
2022-08-07T13:37:19.625Z,3.42
2022-08-07T13:40:34.976Z,3.30
2022-08-07T13:43:12.990Z,3.50
2022-08-07T13:46:11.929Z,3.80
2022-08-07T13:48:39.032Z,3.75
2022-08-07T13:51:26.936Z,3.70
2022-08-07T13:54:03.095Z,3.67
2022-08-07T13:56:36.037Z,3.47
2022-08-07T13:59:23.814Z,3.83
2022-08-07T14:02:04.496Z,3.65
2022-08-07T14:04:35.741Z,3.05
2022-08-07T14:07:09.476Z,3.17
2022-08-07T14:10:15.632Z,3.25
2022-08-07T14:18:29.868Z,3.10
2022-08-07T14:22:02.933Z,2.75
2022-08-07T14:24:42.178Z,3.00
2022-08-07T14:27:16.231Z,2.75
2022-08-07T14:30:11.386Z,2.88
2022-08-07T14:32:48.157Z,2.80
2022-08-07T14:35:45.249Z,3.25
2022-08-07T14:38:26.451Z,2.78
2022-08-07T14:41:04.039Z,2.40
2022-08-07T14:43:58.663Z,2.15
2022-08-07T14:47:14.164Z,2.60
2022-08-07T14:52:34.007Z,2.70
2022-08-07T14:55:02.992Z,2.60
2022-08-07T14:57:58.003Z,2.33
2022-08-07T15:00:30.678Z,2.30
2022-08-07T15:05:54.990Z,2.58
2022-08-07T15:08:47.451Z,2.60
2022-08-07T15:11:48.860Z,2.47
2022-08-07T15:14:13.637Z,2.13
2022-08-07T15:16:55.055Z,2.33
2022-08-07T15:22:31.443Z,2.00
2022-08-07T15:28:32.213Z,2.67
2022-08-07T15:31:05.393Z,2.17
2022-08-07T15:33:36.227Z,2.42
2022-08-07T15:36:05.061Z,2.15
2022-08-07T15:38:51.450Z,2.15
2022-08-07T15:42:46.252Z,2.20
2022-08-07T15:44:15.104Z,2.78
2022-08-07T15:46:51.673Z,2.15
2022-08-07T15:50:04.904Z,2.10
2022-08-07T15:52:30.620Z,1.88
2022-08-07T15:55:02.279Z,2.05
2022-08-07T15:57:39.940Z,2.17
2022-08-07T16:00:31.433Z,2.25
2022-08-07T16:03:21.745Z,2.25
2022-08-07T16:05:58.819Z,2.03
2022-08-07T16:08:37.886Z,2.08
2022-08-07T16:11:26.631Z,2.20
2022-08-07T16:14:24.610Z,2.25
2022-08-07T16:18:01.816Z,2.50
2022-08-07T16:20:38.467Z,2.08
2022-08-07T16:23:55.050Z,2.30
2022-08-07T16:26:31.017Z,2.35
2022-08-07T16:30:07.483Z,2.53
2022-08-07T16:32:03.896Z,2.30
2022-08-07T16:34:48.065Z,2.45
2022-08-07T16:38:03.934Z,2.28
2022-08-07T16:40:23.172Z,2.50
2022-08-07T16:44:02.606Z,2.22
2022-08-07T16:47:06.642Z,2.10
2022-08-07T16:50:27.339Z,2.20
2022-08-07T16:52:51.931Z,2.15
2022-08-07T16:55:47.634Z,1.90
2022-08-07T16:59:11.041Z,2.00
2022-08-07T17:01:48.046Z,1.80
2022-08-07T17:04:29.534Z,2.28
2022-08-07T17:07:03.998Z,2.17
2022-08-07T17:10:07.354Z,2.22
2022-08-07T17:12:53.233Z,2.10
2022-08-07T17:15:44.725Z,1.70
2022-08-07T17:18:32.768Z,2.13
2022-08-07T17:21:02.287Z,2.15
2022-08-07T17:24:17.769Z,2.10
2022-08-07T17:27:32.352Z,2.20
2022-08-07T17:30:16.052Z,2.10
2022-08-07T17:33:39.153Z,2.30
2022-08-07T17:35:55.893Z,2.10
2022-08-07T17:38:34.125Z,1.92
2022-08-07T17:42:02.615Z,1.60
2022-08-07T17:44:08.304Z,1.73
2022-08-07T17:46:53.437Z,1.90
2022-08-07T17:49:31.370Z,2.10
2022-08-07T17:52:36.390Z,1.98
2022-08-07T17:56:00.097Z,2.20
2022-08-07T17:58:30.043Z,2.00
2022-08-07T18:01:02.869Z,2.10
2022-08-07T18:04:07.230Z,2.10
2022-08-07T18:06:43.182Z,2.13
2022-08-07T18:10:04.287Z,2.38
2022-08-07T18:12:55.812Z,2.27
2022-08-07T18:15:32.510Z,2.05
2022-08-07T18:19:02.627Z,2.10
2022-08-07T18:21:42.238Z,2.30
2022-08-07T18:24:00.546Z,2.20
2022-08-07T18:26:47.943Z,2.33
2022-08-07T18:30:07.451Z,2.50
2022-08-07T18:33:10.334Z,2.20
2022-08-07T18:35:59.658Z,2.10
2022-08-07T18:38:57.456Z,2.37
2022-08-07T18:41:47.206Z,2.70
2022-08-07T18:44:32.221Z,2.40
2022-08-07T18:47:10.884Z,2.10
2022-08-07T18:50:33.579Z,2.40
2022-08-07T18:53:12.475Z,2.30
2022-08-07T18:56:01.921Z,2.80
2022-08-07T18:58:34.792Z,2.80
2022-08-07T19:02:17.343Z,3.00
2022-08-07T19:04:09.557Z,3.00
2022-08-07T19:06:53.354Z,3.37
2022-08-07T19:09:56.404Z,3.20
2022-08-07T19:12:53.583Z,2.90
2022-08-07T19:16:04.559Z,3.20
2022-08-07T19:18:48.362Z,3.60
2022-08-07T19:21:47.509Z,3.80
2022-08-07T19:24:30.761Z,3.70
2022-08-07T19:28:29.920Z,4.10
2022-08-07T19:31:05.605Z,3.20
2022-08-07T19:32:45.837Z,3.07
2022-08-07T19:35:25.579Z,2.80
2022-08-07T19:37:58.448Z,2.50
2022-08-07T19:40:31.600Z,2.90
2022-08-07T19:43:09.601Z,3.00
2022-08-07T19:46:04.951Z,2.90
2022-08-07T19:48:43.609Z,3.07
2022-08-07T19:51:20.567Z,2.70
2022-08-07T19:54:32.447Z,2.80
2022-08-07T19:58:01.974Z,2.97
2022-08-07T19:59:45.869Z,2.80
2022-08-07T20:02:31.320Z,3.00
2022-08-07T20:05:02.651Z,3.00
2022-08-07T20:07:47.149Z,3.20
2022-08-07T20:10:36.476Z,3.13
2022-08-07T20:13:23.816Z,2.90
2022-08-07T20:15:57.716Z,2.83
2022-08-07T20:18:33.794Z,2.87
2022-08-07T20:21:20.824Z,2.93
2022-08-07T20:23:57.627Z,2.90
2022-08-07T20:26:32.306Z,2.80
2022-08-07T20:29:10.776Z,3.40
2022-08-07T20:31:50.860Z,2.80
2022-08-07T20:34:46.345Z,3.03
2022-08-07T20:37:11.147Z,2.70
2022-08-07T20:40:03.936Z,3.33
2022-08-07T20:42:32.328Z,3.37
2022-08-07T20:45:01.191Z,2.93
2022-08-07T20:47:56.251Z,3.27
2022-08-07T20:50:20.803Z,2.90
2022-08-07T20:52:51.848Z,3.40
2022-08-07T20:55:24.911Z,3.43
2022-08-07T20:58:08.865Z,3.17
2022-08-07T21:00:53.625Z,3.03
2022-08-07T21:03:26.017Z,3.40
2022-08-07T21:06:03.581Z,3.20
2022-08-07T21:08:43.396Z,3.17
2022-08-07T21:11:18.054Z,3.10
2022-08-07T21:14:16.387Z,2.90
2022-08-07T21:16:56.011Z,3.13
2022-08-07T21:19:51.876Z,3.30
2022-08-07T21:22:20.309Z,2.90
2022-08-07T21:25:20.208Z,2.93
2022-08-07T21:28:48.544Z,3.03
2022-08-07T21:31:49.507Z,3.10
2022-08-07T21:34:26.595Z,3.03
2022-08-07T21:37:13.147Z,3.37
2022-08-07T21:40:07.524Z,3.10
2022-08-07T21:42:57.945Z,3.23
2022-08-07T21:46:04.810Z,3.27
2022-08-07T21:48:35.311Z,3.27
2022-08-07T21:51:33.650Z,3.40
2022-08-07T21:54:52.457Z,3.57
2022-08-07T21:57:56.887Z,3.10
2022-08-07T22:00:25.585Z,3.33
2022-08-07T22:03:17.074Z,3.30
2022-08-07T22:06:01.921Z,3.13
2022-08-07T22:08:43.518Z,3.10
2022-08-07T22:11:17.022Z,2.90
2022-08-07T22:13:51.282Z,3.03
2022-08-07T22:16:45.430Z,3.30
2022-08-07T22:19:23.694Z,3.20
2022-08-07T22:22:21.140Z,2.80
2022-08-07T22:25:13.309Z,2.83
2022-08-07T22:28:29.476Z,3.10
2022-08-07T22:31:05.587Z,3.73
2022-08-07T22:33:56.282Z,2.97
2022-08-07T22:36:47.594Z,3.00
2022-08-07T22:39:53.057Z,3.40
2022-08-07T22:42:29.654Z,3.30
2022-08-07T22:45:03.765Z,3.20
2022-08-07T22:47:58.149Z,2.90
2022-08-07T22:50:39.017Z,3.53
2022-08-07T22:54:06.305Z,3.27
2022-08-07T22:56:57.584Z,2.93
2022-08-07T22:59:59.547Z,3.23
2022-08-07T23:02:51.309Z,3.47
2022-08-07T23:06:10.294Z,3.07
2022-08-07T23:08:46.268Z,3.27
2022-08-07T23:11:45.718Z,3.47
2022-08-07T23:14:22.826Z,3.23
2022-08-07T23:17:20.478Z,3.40
2022-08-07T23:20:51.157Z,3.30
2022-08-07T23:24:04.973Z,3.00
2022-08-07T23:27:01.202Z,3.43
2022-08-07T23:29:43.758Z,3.07
2022-08-07T23:34:24.136Z,3.27
2022-08-07T23:35:25.824Z,3.53
2022-08-07T23:38:04.377Z,3.07
2022-08-07T23:40:50.884Z,3.27
2022-08-07T23:43:37.946Z,3.30
2022-08-07T23:46:43.162Z,3.30
2022-08-07T23:49:51.213Z,3.23
2022-08-07T23:53:02.158Z,3.60
2022-08-07T23:55:52.100Z,3.53
2022-08-07T23:58:38.049Z,3.53
